createdAt,value
2023-11-16T00:00:58.590Z,72.22
2023-11-16T00:01:58.673Z,72.27
2023-11-16T00:03:19.590Z,72.27
2023-11-16T00:03:58.464Z,72.36
2023-11-16T00:04:58.678Z,72.50
2023-11-16T00:05:58.529Z,72.35
2023-11-16T00:06:58.590Z,72.30
2023-11-16T00:07:58.413Z,72.23
2023-11-16T00:09:00.617Z,72.36
2023-11-16T00:09:58.408Z,72.31
2023-11-16T00:10:58.403Z,72.31
2023-11-16T00:11:58.398Z,72.39
2023-11-16T00:12:58.557Z,72.34
2023-11-16T00:13:58.335Z,72.33
2023-11-16T00:14:58.545Z,72.30
2023-11-16T00:15:58.314Z,72.33
2023-11-16T00:16:58.411Z,72.46
2023-11-16T00:17:58.370Z,72.62
2023-11-16T00:19:01.712Z,72.26
2023-11-16T00:19:58.250Z,72.58
2023-11-16T00:20:58.281Z,72.28
2023-11-16T00:21:58.228Z,72.21
2023-11-16T00:22:58.330Z,72.21
2023-11-16T00:23:58.246Z,72.32
2023-11-16T00:24:58.287Z,72.19
2023-11-16T00:25:58.188Z,72.20
2023-11-16T00:26:58.334Z,72.21
2023-11-16T00:27:58.156Z,72.54
2023-11-16T00:28:58.249Z,72.25
2023-11-16T00:29:58.947Z,72.25
2023-11-16T00:30:58.249Z,72.09
2023-11-16T00:31:58.109Z,72.19
2023-11-16T00:32:58.262Z,71.94
2023-11-16T00:33:58.061Z,71.81
2023-11-16T00:34:58.256Z,71.72
2023-11-16T00:35:58.069Z,71.77
2023-11-16T00:36:58.167Z,71.88
2023-11-16T00:37:58.026Z,71.75
2023-11-16T00:38:58.100Z,71.55
2023-11-16T00:39:57.977Z,71.43
2023-11-16T00:40:58.030Z,71.45
2023-11-16T00:41:57.961Z,71.45
2023-11-16T00:42:58.070Z,71.46
2023-11-16T00:43:57.957Z,71.42
2023-11-16T00:44:59.048Z,71.39
2023-11-16T00:45:57.970Z,71.23
2023-11-16T00:46:58.042Z,71.43
2023-11-16T00:47:57.948Z,71.25
2023-11-16T00:49:18.973Z,71.25
2023-11-16T00:49:57.848Z,71.25
2023-11-16T00:50:57.912Z,71.17
2023-11-16T00:51:57.826Z,71.08
2023-11-16T00:52:57.966Z,71.06
2023-11-16T00:53:57.827Z,71.05
2023-11-16T00:54:58.910Z,71.11
2023-11-16T00:55:57.759Z,70.95
2023-11-16T00:56:57.815Z,70.86
2023-11-16T00:57:57.767Z,70.76
2023-11-16T00:58:57.873Z,70.58
2023-11-16T00:59:57.752Z,70.51
2023-11-16T01:01:18.802Z,70.41
2023-11-16T01:01:57.707Z,70.47
2023-11-16T01:02:58.073Z,70.46
2023-11-16T01:03:57.783Z,70.47
2023-11-16T01:04:57.869Z,70.45
2023-11-16T01:05:57.643Z,70.35
2023-11-16T01:06:57.690Z,70.46
2023-11-16T01:07:57.639Z,70.40
2023-11-16T01:08:57.739Z,70.29
2023-11-16T01:09:57.569Z,70.25
2023-11-16T01:10:57.661Z,70.38
2023-11-16T01:11:57.567Z,70.44
2023-11-16T01:12:57.745Z,70.70
2023-11-16T01:13:57.516Z,70.49
2023-11-16T01:14:57.627Z,70.35
2023-11-16T01:15:57.531Z,70.41
2023-11-16T01:16:57.570Z,70.29
2023-11-16T01:17:57.541Z,70.25
2023-11-16T01:18:57.641Z,70.06
2023-11-16T01:19:57.465Z,70.01
2023-11-16T01:20:57.539Z,69.91
2023-11-16T01:21:57.437Z,69.68
2023-11-16T01:22:57.599Z,69.78
2023-11-16T01:23:57.408Z,69.69
2023-11-16T01:24:57.412Z,69.11
2023-11-16T01:25:57.373Z,69.06
2023-11-16T01:26:57.438Z,69.00
2023-11-16T01:27:57.374Z,69.11
2023-11-16T01:28:57.520Z,68.98
2023-11-16T01:29:57.336Z,68.83
2023-11-16T01:32:06.809Z,68.71
2023-11-16T01:33:06.673Z,68.72
2023-11-16T01:34:06.745Z,68.99
2023-11-16T01:35:06.646Z,68.84
2023-11-16T01:36:27.655Z,68.60
2023-11-16T01:37:06.555Z,68.37
2023-11-16T01:38:06.739Z,68.46
2023-11-16T01:39:06.627Z,68.38
2023-11-16T01:40:06.656Z,68.50
2023-11-16T01:41:06.497Z,68.64
2023-11-16T01:42:06.604Z,68.50
2023-11-16T01:43:06.458Z,68.37
2023-11-16T01:44:06.601Z,68.29
2023-11-16T01:45:06.457Z,68.61
2023-11-16T01:46:06.597Z,68.43
2023-11-16T01:47:06.428Z,68.18
2023-11-16T01:48:08.185Z,68.12
2023-11-16T01:49:06.401Z,67.97
2023-11-16T01:50:06.405Z,68.07
2023-11-16T01:51:06.441Z,68.02
2023-11-16T01:52:06.442Z,67.94
2023-11-16T01:53:06.335Z,68.10
2023-11-16T01:54:06.484Z,68.23
2023-11-16T01:55:06.296Z,68.13
2023-11-16T01:56:06.420Z,68.19
2023-11-16T01:57:06.337Z,68.14
2023-11-16T01:58:06.448Z,68.11
2023-11-16T01:59:06.257Z,68.15
2023-11-16T02:00:06.313Z,68.18
2023-11-16T02:01:06.271Z,68.44
2023-11-16T02:02:06.319Z,68.17
2023-11-16T02:03:06.437Z,68.25
2023-11-16T02:04:10.298Z,68.31
2023-11-16T02:05:06.179Z,68.51
2023-11-16T02:06:06.331Z,68.54
2023-11-16T02:07:06.154Z,68.50
2023-11-16T02:08:06.256Z,68.58
2023-11-16T02:09:06.109Z,68.69
2023-11-16T02:10:06.155Z,68.75
2023-11-16T02:11:06.108Z,68.84
2023-11-16T02:12:06.229Z,68.81
2023-11-16T02:13:06.050Z,68.93
2023-11-16T02:14:06.281Z,68.93
2023-11-16T02:15:06.129Z,68.89
2023-11-16T02:16:06.095Z,69.02
2023-11-16T02:17:06.020Z,68.99
2023-11-16T02:18:06.212Z,68.91
2023-11-16T02:19:05.980Z,69.03
2023-11-16T02:20:06.136Z,69.12
2023-11-16T02:21:05.971Z,69.17
2023-11-16T02:22:06.071Z,69.23
2023-11-16T02:23:05.937Z,69.23
2023-11-16T02:24:06.126Z,69.29
2023-11-16T02:25:05.927Z,69.26
2023-11-16T02:26:27.015Z,69.24
2023-11-16T02:27:05.919Z,69.43
2023-11-16T02:28:06.011Z,69.43
2023-11-16T02:29:05.898Z,69.44
2023-11-16T02:30:05.937Z,69.49
2023-11-16T02:31:05.824Z,69.52
2023-11-16T02:32:05.986Z,69.63
2023-11-16T02:33:05.902Z,69.67
2023-11-16T02:34:05.989Z,69.65
2023-11-16T02:35:05.799Z,69.64
2023-11-16T02:36:05.835Z,69.76
2023-11-16T02:37:05.733Z,69.64
2023-11-16T02:38:05.809Z,69.67
2023-11-16T02:39:05.736Z,69.91
2023-11-16T02:40:05.789Z,69.83
2023-11-16T02:41:05.695Z,70.11
2023-11-16T02:42:05.854Z,69.94
2023-11-16T02:43:05.653Z,70.13
2023-11-16T02:44:27.764Z,70.17
2023-11-16T02:45:05.647Z,70.13
2023-11-16T02:46:05.702Z,70.28
2023-11-16T02:47:05.622Z,70.48
2023-11-16T02:48:05.947Z,70.56
2023-11-16T02:49:05.648Z,70.58
2023-11-16T02:50:06.697Z,70.58
2023-11-16T02:51:05.593Z,70.71
2023-11-16T02:52:05.701Z,70.70
2023-11-16T02:53:05.529Z,70.70
2023-11-16T02:54:05.657Z,70.71
2023-11-16T02:55:05.503Z,70.74
2023-11-16T02:56:05.564Z,70.68
2023-11-16T02:57:05.544Z,70.71
2023-11-16T02:58:05.611Z,70.72
2023-11-16T02:59:05.460Z,70.74
2023-11-16T03:00:05.660Z,70.68
2023-11-16T03:01:05.453Z,70.69
2023-11-16T03:02:06.601Z,70.72
2023-11-16T03:03:05.516Z,70.66
2023-11-16T03:04:05.696Z,70.68
2023-11-16T03:05:05.368Z,70.66
2023-11-16T03:06:05.489Z,70.67
2023-11-16T03:07:05.335Z,70.75
2023-11-16T03:08:06.548Z,70.87
2023-11-16T03:09:05.375Z,70.82
2023-11-16T03:10:05.417Z,70.77
2023-11-16T03:11:05.302Z,70.82
2023-11-16T03:12:05.371Z,70.91
2023-11-16T03:13:05.505Z,71.03
2023-11-16T03:14:05.283Z,70.97
2023-11-16T03:15:05.262Z,71.25
2023-11-16T03:16:05.330Z,71.29
2023-11-16T03:17:05.219Z,71.29
2023-11-16T03:18:05.510Z,71.35
2023-11-16T03:19:05.179Z,71.43
2023-11-16T03:20:07.410Z,71.60
2023-11-16T03:21:05.225Z,71.50
2023-11-16T03:22:05.233Z,71.71
2023-11-16T03:23:05.137Z,71.78
2023-11-16T03:24:05.175Z,71.72
2023-11-16T03:25:05.082Z,71.85
2023-11-16T03:26:05.191Z,72.00
2023-11-16T03:27:05.093Z,72.03
2023-11-16T03:28:05.231Z,72.07
2023-11-16T03:29:05.063Z,72.25
2023-11-16T03:30:07.380Z,72.16
2023-11-16T03:31:05.058Z,72.11
2023-11-16T03:32:05.104Z,72.18
2023-11-16T03:33:05.232Z,72.20
2023-11-16T03:34:05.028Z,72.18
2023-11-16T03:35:04.977Z,72.24
2023-11-16T03:36:05.069Z,72.24
2023-11-16T03:37:04.984Z,72.30
2023-11-16T03:38:05.112Z,72.48
2023-11-16T03:39:05.044Z,72.51
2023-11-16T03:40:04.949Z,72.54
2023-11-16T03:41:04.885Z,72.75
2023-11-16T03:42:06.052Z,72.69
2023-11-16T03:43:04.854Z,72.72
2023-11-16T03:44:04.907Z,72.66
2023-11-16T03:45:04.827Z,72.57
2023-11-16T03:46:04.970Z,72.60
2023-11-16T03:47:04.800Z,72.57
2023-11-16T03:48:05.046Z,72.62
2023-11-16T03:49:04.776Z,72.46
2023-11-16T03:50:04.819Z,72.48
2023-11-16T03:51:04.730Z,72.36
2023-11-16T03:52:04.853Z,72.30
2023-11-16T03:53:04.719Z,72.26
2023-11-16T03:54:04.794Z,72.23
2023-11-16T03:55:04.681Z,72.24
2023-11-16T03:56:04.817Z,72.37
2023-11-16T03:57:04.653Z,72.36
2023-11-16T03:58:04.770Z,72.45
2023-11-16T03:59:04.682Z,72.41
2023-11-16T04:00:25.730Z,72.45
2023-11-16T04:01:04.595Z,72.40
2023-11-16T04:02:04.790Z,72.41
2023-11-16T04:03:04.645Z,72.43
2023-11-16T04:04:04.736Z,72.41
2023-11-16T04:05:04.567Z,72.37
2023-11-16T04:06:06.743Z,72.44
2023-11-16T04:07:04.507Z,72.54
2023-11-16T04:08:04.629Z,72.51
2023-11-16T04:09:04.477Z,72.60
2023-11-16T04:10:04.577Z,72.58
2023-11-16T04:11:04.471Z,72.57
2023-11-16T04:12:05.545Z,73.03
2023-11-16T04:13:04.434Z,73.00
2023-11-16T04:14:04.545Z,72.79
2023-11-16T04:15:04.401Z,72.93
2023-11-16T04:16:25.507Z,72.91
2023-11-16T04:17:04.381Z,72.80
2023-11-16T04:18:04.381Z,73.18
2023-11-16T04:19:04.550Z,72.97
2023-11-16T04:20:04.331Z,73.00
2023-11-16T04:21:04.425Z,73.47
2023-11-16T04:22:04.338Z,73.93
2023-11-16T04:23:04.356Z,73.18
2023-11-16T04:24:04.276Z,73.00
2023-11-16T04:25:04.383Z,73.00
2023-11-16T04:26:04.264Z,73.07
2023-11-16T04:27:04.428Z,72.81
2023-11-16T04:28:04.238Z,72.85
2023-11-16T04:29:04.370Z,72.82
2023-11-16T04:30:04.211Z,72.75
2023-11-16T04:31:04.441Z,73.30
2023-11-16T04:32:04.174Z,72.87
2023-11-16T04:33:05.426Z,72.68
2023-11-16T04:34:04.160Z,72.84
2023-11-16T04:35:04.267Z,72.69
2023-11-16T04:36:04.122Z,72.43
2023-11-16T04:37:04.307Z,72.38
2023-11-16T04:38:04.103Z,72.12
2023-11-16T04:39:25.295Z,72.26
2023-11-16T04:40:04.076Z,72.29
2023-11-16T04:41:04.172Z,72.23
2023-11-16T04:42:04.049Z,72.06
2023-11-16T04:43:04.113Z,72.00
2023-11-16T04:44:04.012Z,71.92
2023-11-16T04:45:04.191Z,72.00
2023-11-16T04:46:03.985Z,72.49
2023-11-16T04:47:05.101Z,72.56
2023-11-16T04:48:04.029Z,72.08
2023-11-16T04:49:04.156Z,71.77
2023-11-16T04:50:03.944Z,71.87
2023-11-16T04:51:06.050Z,71.92
2023-11-16T04:52:04.018Z,71.82
2023-11-16T04:53:03.985Z,71.58
2023-11-16T04:54:03.896Z,72.01
2023-11-16T04:55:04.028Z,71.51
2023-11-16T04:56:03.864Z,71.67
2023-11-16T04:57:04.008Z,71.58
2023-11-16T04:58:03.970Z,71.87
2023-11-16T04:59:03.889Z,71.59
2023-11-16T05:00:03.799Z,71.35
2023-11-16T05:01:04.097Z,71.13
2023-11-16T05:02:03.772Z,70.98
2023-11-16T05:03:05.062Z,70.84
2023-11-16T05:04:03.922Z,70.70
2023-11-16T05:05:03.913Z,70.81
2023-11-16T05:06:03.736Z,70.46
2023-11-16T05:07:03.866Z,70.51
2023-11-16T05:08:03.691Z,70.27
2023-11-16T05:09:05.765Z,70.33
2023-11-16T05:10:03.677Z,70.40
2023-11-16T05:11:03.805Z,70.71
2023-11-16T05:12:03.643Z,70.37
2023-11-16T05:13:24.736Z,70.11
2023-11-16T05:14:03.613Z,70.64
2023-11-16T05:15:03.606Z,69.75
2023-11-16T05:16:03.808Z,69.78
2023-11-16T05:17:03.604Z,69.68
2023-11-16T05:18:03.715Z,70.03
2023-11-16T05:19:03.581Z,69.72
2023-11-16T05:20:04.733Z,69.64
2023-11-16T05:21:03.533Z,69.54
2023-11-16T05:22:03.539Z,69.42
2023-11-16T05:23:03.490Z,69.39
2023-11-16T05:24:03.582Z,69.50
2023-11-16T05:25:03.462Z,69.60
2023-11-16T05:26:24.545Z,69.42
2023-11-16T05:27:03.451Z,69.41
2023-11-16T05:28:03.556Z,69.47
2023-11-16T05:29:03.413Z,69.44
2023-11-16T05:30:03.586Z,69.37
2023-11-16T05:31:03.382Z,69.39
2023-11-16T05:32:03.487Z,69.45
2023-11-16T05:33:03.427Z,69.12
2023-11-16T05:34:03.974Z,69.24
2023-11-16T05:35:03.332Z,69.29
2023-11-16T05:36:03.505Z,69.25
2023-11-16T05:37:03.303Z,69.03
2023-11-16T05:38:03.507Z,69.02
2023-11-16T05:39:03.268Z,69.08
2023-11-16T05:40:03.352Z,69.14
2023-11-16T05:41:03.245Z,69.02
2023-11-16T05:42:03.269Z,68.91
2023-11-16T05:43:03.218Z,69.15
2023-11-16T05:44:03.322Z,68.71
2023-11-16T05:45:03.196Z,68.69
2023-11-16T05:46:03.393Z,68.89
2023-11-16T05:47:03.162Z,68.76
2023-11-16T05:48:04.255Z,68.85
2023-11-16T05:49:03.149Z,68.69
2023-11-16T05:50:03.183Z,68.90
2023-11-16T05:51:03.185Z,68.79
2023-11-16T05:52:03.155Z,68.89
2023-11-16T05:53:03.084Z,68.65
2023-11-16T05:54:03.137Z,68.67
2023-11-16T05:55:03.067Z,68.81
2023-11-16T05:56:03.105Z,68.87
2023-11-16T05:57:03.024Z,68.95
2023-11-16T05:58:03.064Z,68.81
2023-11-16T05:59:03.002Z,68.85
2023-11-16T06:00:03.149Z,68.95
2023-11-16T06:01:03.037Z,69.08
2023-11-16T06:02:03.044Z,69.15
2023-11-16T06:03:03.029Z,69.12
2023-11-16T06:04:03.114Z,69.51
2023-11-16T06:05:03.071Z,69.24
2023-11-16T06:06:02.950Z,69.11
2023-11-16T06:07:02.902Z,69.21
2023-11-16T06:08:03.012Z,69.39
2023-11-16T06:09:02.864Z,69.27
2023-11-16T06:10:02.986Z,69.18
2023-11-16T06:11:02.840Z,69.29
2023-11-16T06:12:02.867Z,69.28
2023-11-16T06:13:02.866Z,69.22
2023-11-16T06:14:02.992Z,69.18
2023-11-16T06:15:02.815Z,69.19
2023-11-16T06:16:02.818Z,69.16
2023-11-16T06:17:02.804Z,69.12
2023-11-16T06:18:03.047Z,69.24
2023-11-16T06:19:02.766Z,69.44
2023-11-16T06:20:02.769Z,69.38
2023-11-16T06:21:02.777Z,69.18
2023-11-16T06:22:02.740Z,69.25
2023-11-16T06:23:02.662Z,69.22
2023-11-16T06:24:02.872Z,69.10
2023-11-16T06:25:02.655Z,69.33
2023-11-16T06:26:02.733Z,69.50
2023-11-16T06:27:02.653Z,69.39
2023-11-16T06:28:02.673Z,69.36
2023-11-16T06:29:02.611Z,69.58
2023-11-16T06:30:02.696Z,70.20
2023-11-16T06:31:02.574Z,70.11
2023-11-16T06:32:02.676Z,69.64
2023-11-16T06:33:02.578Z,69.64
2023-11-16T06:34:02.627Z,69.34
2023-11-16T06:35:02.598Z,69.64
2023-11-16T06:36:02.594Z,69.49
2023-11-16T06:37:02.499Z,69.37
2023-11-16T06:38:02.606Z,69.31
2023-11-16T06:39:02.480Z,69.08
2023-11-16T06:40:02.566Z,69.26
2023-11-16T06:41:02.469Z,69.21
2023-11-16T06:42:02.471Z,69.05
2023-11-16T06:43:02.426Z,69.04
2023-11-16T06:44:02.588Z,68.94
2023-11-16T06:45:02.431Z,68.78
2023-11-16T06:46:02.434Z,68.78
2023-11-16T06:47:02.365Z,68.65
2023-11-16T06:48:02.439Z,68.77
2023-11-16T06:49:02.326Z,68.81
2023-11-16T06:50:02.380Z,68.88
2023-11-16T06:51:02.323Z,68.90
2023-11-16T06:52:03.662Z,68.77
2023-11-16T06:53:02.534Z,69.03
2023-11-16T06:54:02.504Z,68.97
2023-11-16T06:55:02.914Z,69.19
2023-11-16T06:56:02.384Z,68.86
2023-11-16T06:57:02.897Z,68.83
2023-11-16T06:58:03.319Z,69.23
2023-11-16T06:59:02.417Z,69.36
2023-11-16T07:00:02.976Z,69.07
2023-11-16T07:01:02.171Z,69.05
2023-11-16T07:02:02.301Z,68.95
2023-11-16T07:03:02.359Z,69.12
2023-11-16T07:04:02.493Z,69.11
2023-11-16T07:05:02.325Z,69.11
2023-11-16T07:06:02.323Z,69.05
2023-11-16T07:07:02.106Z,69.08
2023-11-16T07:08:02.231Z,68.99
2023-11-16T07:09:02.126Z,69.15
2023-11-16T07:10:03.338Z,68.88
2023-11-16T07:11:02.048Z,68.90
2023-11-16T07:12:02.283Z,69.23
2023-11-16T07:13:02.348Z,69.01
2023-11-16T07:14:02.190Z,69.14
2023-11-16T07:15:02.058Z,69.06
2023-11-16T07:16:02.066Z,68.99
2023-11-16T07:17:02.073Z,68.97
2023-11-16T07:18:02.064Z,69.22
2023-11-16T07:19:02.010Z,69.09
2023-11-16T07:20:04.036Z,69.28
2023-11-16T07:21:02.245Z,69.23
2023-11-16T07:22:01.952Z,69.39
2023-11-16T07:23:01.959Z,69.19
2023-11-16T07:24:01.987Z,69.39
2023-11-16T07:25:01.853Z,69.28
2023-11-16T07:26:01.924Z,69.37
2023-11-16T07:27:01.835Z,69.20
2023-11-16T07:28:02.997Z,69.55
2023-11-16T07:29:01.786Z,69.77
2023-11-16T07:30:01.900Z,69.59
2023-11-16T07:31:01.815Z,69.54
2023-11-16T07:32:01.887Z,69.53
2023-11-16T07:33:04.743Z,69.49
2023-11-16T07:34:01.783Z,69.39
2023-11-16T07:35:01.740Z,70.29
2023-11-16T07:36:01.762Z,69.50
2023-11-16T07:37:01.753Z,69.54
2023-11-16T07:38:01.700Z,69.61
2023-11-16T07:39:01.759Z,69.18
2023-11-16T07:40:03.829Z,69.19
2023-11-16T07:41:01.681Z,69.21
2023-11-16T07:42:01.628Z,68.88
2023-11-16T07:43:03.679Z,69.12
2023-11-16T07:44:01.672Z,68.87
2023-11-16T07:45:01.602Z,68.93
2023-11-16T07:46:01.573Z,68.92
2023-11-16T07:47:01.693Z,69.11
2023-11-16T07:48:01.914Z,69.15
2023-11-16T07:49:01.634Z,68.96
2023-11-16T07:50:01.541Z,69.14
2023-11-16T07:51:01.538Z,69.04
2023-11-16T07:52:01.533Z,69.09
2023-11-16T07:53:01.682Z,69.07
2023-11-16T07:54:01.464Z,70.29
2023-11-16T07:55:01.479Z,69.13
2023-11-16T07:56:01.458Z,69.04
2023-11-16T07:57:01.498Z,69.12
2023-11-16T07:58:01.446Z,69.13
2023-11-16T07:59:01.771Z,69.11
2023-11-16T08:00:01.402Z,68.76
2023-11-16T08:01:01.461Z,68.37
2023-11-16T08:02:01.370Z,68.54
2023-11-16T08:03:01.595Z,68.65
2023-11-16T08:04:01.438Z,68.46
2023-11-16T08:05:02.446Z,68.21
2023-11-16T08:06:01.304Z,67.94
2023-11-16T08:07:01.693Z,68.08
2023-11-16T08:08:01.299Z,67.79
2023-11-16T08:09:01.362Z,67.78
2023-11-16T08:10:01.319Z,67.75
2023-11-16T08:11:01.283Z,67.77
2023-11-16T08:12:01.363Z,67.79
2023-11-16T08:13:01.302Z,67.55
2023-11-16T08:14:01.422Z,67.69
2023-11-16T08:15:01.241Z,67.69
2023-11-16T08:16:01.242Z,67.48
2023-11-16T08:17:01.209Z,67.36
2023-11-16T08:18:01.169Z,67.46
2023-11-16T08:19:01.279Z,67.68
2023-11-16T08:20:01.146Z,67.46
2023-11-16T08:21:01.160Z,67.04
2023-11-16T08:22:01.114Z,67.54
2023-11-16T08:23:01.622Z,67.18
2023-11-16T08:24:01.975Z,67.40
2023-11-16T08:25:01.679Z,66.46
2023-11-16T08:26:01.781Z,66.84
2023-11-16T08:27:01.465Z,66.47
2023-11-16T08:28:01.839Z,66.50
2023-11-16T08:29:02.426Z,66.84
2023-11-16T08:30:01.478Z,66.75
2023-11-16T08:31:02.752Z,66.58
2023-11-16T08:32:01.804Z,66.68
2023-11-16T08:33:02.563Z,66.82
2023-11-16T08:34:01.922Z,65.93
2023-11-16T08:35:01.317Z,66.25
2023-11-16T08:36:01.438Z,66.18
2023-11-16T08:37:01.754Z,66.09
2023-11-16T08:38:01.716Z,66.12
2023-11-16T08:39:01.448Z,66.45
2023-11-16T08:40:01.222Z,66.04
2023-11-16T08:41:01.764Z,65.68
2023-11-16T08:42:01.621Z,65.78
2023-11-16T08:43:01.325Z,66.05
2023-11-16T08:44:01.165Z,65.77
2023-11-16T08:45:01.337Z,66.04
2023-11-16T08:46:01.549Z,66.33
2023-11-16T08:47:01.936Z,66.14
2023-11-16T08:48:00.830Z,65.91
2023-11-16T08:49:00.883Z,65.32
2023-11-16T08:50:00.751Z,65.96
2023-11-16T08:51:00.762Z,66.41
2023-11-16T08:52:01.639Z,65.53
2023-11-16T08:53:00.770Z,65.72
2023-11-16T08:54:00.668Z,64.82
2023-11-16T08:55:00.680Z,65.02
2023-11-16T08:56:00.652Z,66.37
2023-11-16T08:57:00.688Z,65.06
2023-11-16T08:58:00.625Z,64.49
2023-11-16T08:59:01.626Z,64.41
2023-11-16T09:00:00.621Z,64.30
2023-11-16T09:01:00.702Z,64.28
2023-11-16T09:02:00.678Z,64.74
2023-11-16T09:03:00.713Z,64.55
2023-11-16T09:04:00.661Z,64.63
2023-11-16T09:05:00.557Z,64.49
2023-11-16T09:06:00.511Z,64.77
2023-11-16T09:07:00.617Z,64.91
2023-11-16T09:08:00.540Z,65.28
2023-11-16T09:09:00.574Z,65.69
2023-11-16T09:10:00.592Z,64.35
2023-11-16T09:11:00.506Z,64.25
2023-11-16T09:12:00.438Z,63.94
2023-11-16T09:13:00.514Z,63.82
2023-11-16T09:14:00.440Z,63.90
2023-11-16T09:15:00.436Z,64.23
2023-11-16T09:16:00.471Z,64.10
2023-11-16T09:17:09.972Z,63.89
2023-11-16T09:18:01.624Z,63.90
2023-11-16T09:19:01.094Z,63.47
2023-11-16T09:20:00.475Z,63.83
2023-11-16T09:21:00.376Z,63.85
2023-11-16T09:22:00.340Z,64.46
2023-11-16T09:23:00.447Z,64.29
2023-11-16T09:24:00.306Z,63.82
2023-11-16T09:25:00.381Z,63.33
2023-11-16T09:26:00.295Z,63.16
2023-11-16T09:27:00.317Z,62.69
2023-11-16T09:28:00.749Z,62.92
2023-11-16T09:29:05.430Z,63.66
2023-11-16T09:30:01.194Z,62.52
2023-11-16T09:31:00.275Z,61.84
2023-11-16T09:32:00.321Z,61.60
2023-11-16T09:33:02.326Z,62.27
2023-11-16T09:34:00.637Z,61.77
2023-11-16T09:35:10.077Z,62.24
2023-11-16T09:36:02.593Z,61.33
2023-11-16T09:37:00.264Z,62.08
2023-11-16T09:38:00.115Z,61.94
2023-11-16T09:39:00.305Z,62.53
2023-11-16T09:40:00.125Z,62.86
2023-11-16T09:41:00.100Z,61.81
2023-11-16T09:42:00.241Z,61.86
2023-11-16T09:43:00.258Z,61.27
2023-11-16T09:44:00.303Z,60.95
2023-11-16T09:45:00.244Z,61.00
2023-11-16T09:46:00.213Z,61.81
2023-11-16T09:47:00.261Z,62.10
2023-11-16T09:48:00.095Z,62.27
2023-11-16T09:49:00.405Z,62.69
2023-11-16T09:50:00.404Z,60.58
2023-11-16T09:51:01.131Z,62.05
2023-11-16T09:52:00.013Z,62.45
2023-11-16T09:53:00.233Z,62.61
2023-11-16T09:54:00.065Z,61.64
2023-11-16T09:54:59.981Z,60.73
2023-11-16T09:56:00.130Z,60.84
2023-11-16T09:56:59.978Z,60.03
2023-11-16T09:57:59.876Z,60.03
2023-11-16T09:58:59.814Z,59.49
2023-11-16T09:59:59.838Z,59.22
2023-11-16T10:00:59.967Z,59.51
2023-11-16T10:01:59.782Z,59.61
2023-11-16T10:03:00.029Z,59.27
2023-11-16T10:03:59.926Z,59.20
2023-11-16T10:05:00.052Z,59.60
2023-11-16T10:05:59.864Z,58.45
2023-11-16T10:07:00.960Z,59.37
2023-11-16T10:07:59.763Z,58.79
2023-11-16T10:08:59.984Z,58.89
2023-11-16T10:09:59.890Z,58.62
2023-11-16T10:11:20.684Z,59.05
2023-11-16T10:11:59.643Z,58.77
2023-11-16T10:12:59.758Z,58.76
2023-11-16T10:13:59.651Z,59.18
2023-11-16T10:14:59.643Z,60.44
2023-11-16T10:15:59.633Z,58.87
2023-11-16T10:16:59.652Z,58.37
2023-11-16T10:17:59.572Z,58.40
2023-11-16T10:18:59.693Z,58.41
2023-11-16T10:19:59.562Z,58.39
2023-11-16T10:20:59.595Z,58.02
2023-11-16T10:21:59.564Z,58.17
2023-11-16T10:22:59.604Z,57.44
2023-11-16T10:23:59.632Z,57.79
2023-11-16T10:24:59.516Z,57.56
2023-11-16T10:25:59.476Z,57.61
2023-11-16T10:26:59.503Z,58.02
2023-11-16T10:27:59.462Z,57.85
2023-11-16T10:28:59.522Z,57.97
2023-11-16T10:29:59.419Z,58.11
2023-11-16T10:30:59.465Z,58.21
2023-11-16T10:31:59.405Z,58.60
2023-11-16T10:32:59.489Z,57.93
2023-11-16T10:33:59.607Z,58.33
2023-11-16T10:34:59.375Z,57.80
2023-11-16T10:35:59.486Z,57.92
2023-11-16T10:37:01.545Z,57.92
2023-11-16T10:37:59.612Z,57.71
2023-11-16T10:38:59.286Z,57.75
2023-11-16T10:39:59.327Z,57.84
2023-11-16T10:40:59.337Z,57.20
2023-11-16T10:41:59.231Z,57.14
2023-11-16T10:42:59.388Z,57.22
2023-11-16T10:43:59.255Z,57.22
2023-11-16T10:44:59.234Z,57.83
2023-11-16T10:45:59.252Z,57.78
2023-11-16T10:46:59.402Z,58.04
2023-11-16T10:47:59.290Z,57.72
2023-11-16T10:48:59.227Z,57.42
2023-11-16T10:49:59.218Z,57.42
2023-11-16T10:50:59.186Z,57.01
2023-11-16T10:51:59.131Z,57.38
2023-11-16T10:52:59.286Z,57.07
2023-11-16T10:53:59.095Z,56.25
2023-11-16T10:54:59.160Z,57.04
2023-11-16T10:55:59.061Z,56.83
2023-11-16T10:56:59.129Z,56.70
2023-11-16T10:57:59.056Z,56.49
2023-11-16T10:58:59.025Z,56.10
2023-11-16T10:59:58.998Z,57.71
2023-11-16T11:00:59.157Z,56.42
2023-11-16T11:01:59.035Z,56.09
2023-11-16T11:02:59.095Z,57.38
2023-11-16T11:03:59.123Z,57.35
2023-11-16T11:04:59.032Z,56.08
2023-11-16T11:05:58.928Z,55.65
2023-11-16T11:06:59.089Z,54.96
2023-11-16T11:07:58.950Z,55.16
2023-11-16T11:08:58.958Z,55.61
2023-11-16T11:09:58.895Z,55.10
2023-11-16T11:10:58.914Z,56.60
2023-11-16T11:11:58.850Z,56.81
2023-11-16T11:12:58.934Z,56.70
2023-11-16T11:13:59.633Z,56.76
2023-11-16T11:14:58.842Z,57.26
2023-11-16T11:15:58.838Z,55.10
2023-11-16T11:16:58.880Z,54.34
2023-11-16T11:17:58.796Z,54.28
2023-11-16T11:19:00.490Z,53.41
2023-11-16T11:19:58.736Z,54.41
2023-11-16T11:20:58.786Z,55.06
2023-11-16T11:21:58.753Z,55.87
2023-11-16T11:22:58.801Z,56.03
2023-11-16T11:23:58.696Z,53.29
2023-11-16T11:25:02.148Z,53.28
2023-11-16T11:25:59.681Z,52.85
2023-11-16T11:26:58.731Z,52.39
2023-11-16T11:27:58.653Z,53.72
2023-11-16T11:28:58.645Z,54.33
2023-11-16T11:29:58.596Z,54.67
2023-11-16T11:30:58.738Z,53.40
2023-11-16T11:31:58.600Z,53.19
2023-11-16T11:33:03.602Z,52.52
2023-11-16T11:33:59.618Z,52.48
2023-11-16T11:34:58.565Z,53.09
2023-11-16T11:35:58.513Z,51.87
2023-11-16T11:36:58.650Z,53.27
2023-11-16T11:37:58.500Z,51.79
2023-11-16T11:38:58.499Z,51.53
2023-11-16T11:39:58.495Z,52.89
2023-11-16T11:40:58.520Z,52.72
2023-11-16T11:41:58.433Z,53.04
2023-11-16T11:42:58.612Z,52.43
2023-11-16T11:43:58.432Z,51.34
2023-11-16T11:44:58.427Z,51.28
2023-11-16T11:45:58.466Z,52.74
2023-11-16T11:46:58.534Z,53.08
2023-11-16T11:47:58.382Z,53.47
2023-11-16T11:48:58.361Z,52.80
2023-11-16T11:49:58.360Z,52.21
2023-11-16T11:50:58.440Z,51.43
2023-11-16T11:51:58.391Z,50.98
2023-11-16T11:52:58.416Z,51.11
2023-11-16T11:53:58.281Z,49.86
2023-11-16T11:54:58.359Z,49.65
2023-11-16T11:55:58.290Z,49.43
2023-11-16T11:56:58.317Z,49.14
2023-11-16T11:57:58.262Z,51.86
2023-11-16T11:58:58.233Z,50.23
2023-11-16T11:59:58.245Z,50.03
2023-11-16T12:00:58.322Z,50.68
2023-11-16T12:01:58.195Z,51.53
2023-11-16T12:02:58.352Z,52.04
2023-11-16T12:04:03.847Z,50.56
2023-11-16T12:04:59.421Z,50.52
2023-11-16T12:05:58.266Z,50.86
2023-11-16T12:06:58.166Z,52.66
2023-11-16T12:07:58.133Z,51.66
2023-11-16T12:08:58.115Z,51.96
2023-11-16T12:09:58.119Z,51.44
2023-11-16T12:10:58.070Z,50.26
2023-11-16T12:11:58.143Z,51.67
2023-11-16T12:12:58.153Z,51.46
2023-11-16T12:13:58.092Z,52.34
2023-11-16T12:14:57.985Z,50.67
2023-11-16T12:15:58.212Z,49.64
2023-11-16T12:16:57.999Z,51.51
2023-11-16T12:17:58.070Z,51.05
2023-11-16T12:18:58.028Z,50.13
2023-11-16T12:19:58.022Z,51.86
2023-11-16T12:20:57.902Z,51.20
2023-11-16T12:22:19.301Z,50.61
2023-11-16T12:22:57.881Z,50.58
2023-11-16T12:23:57.914Z,51.54
2023-11-16T12:24:57.922Z,51.17
2023-11-16T12:25:57.972Z,52.57
2023-11-16T12:26:57.845Z,49.84
2023-11-16T12:27:57.969Z,51.17
2023-11-16T12:28:57.810Z,49.92
2023-11-16T12:29:57.872Z,50.38
2023-11-16T12:30:58.088Z,49.94
2023-11-16T12:31:58.882Z,51.38
2023-11-16T12:32:57.773Z,51.70
2023-11-16T12:33:57.984Z,51.03
2023-11-16T12:34:57.727Z,50.51
2023-11-16T12:35:57.794Z,50.69
2023-11-16T12:36:57.741Z,51.49
2023-11-16T12:37:57.753Z,50.15
2023-11-16T12:38:57.665Z,50.74
2023-11-16T12:39:57.800Z,51.76
2023-11-16T12:40:57.646Z,50.65
2023-11-16T12:41:57.751Z,51.52
2023-11-16T12:42:57.635Z,51.28
2023-11-16T12:43:57.746Z,52.07
2023-11-16T12:44:57.582Z,52.59
2023-11-16T12:45:57.703Z,53.30
2023-11-16T12:46:57.590Z,51.43
2023-11-16T12:47:57.578Z,50.88
2023-11-16T12:48:57.544Z,49.79
2023-11-16T12:49:57.641Z,52.36
2023-11-16T12:50:57.509Z,51.12
2023-11-16T12:51:57.627Z,51.16
2023-11-16T12:52:57.485Z,50.08
2023-11-16T12:53:57.521Z,49.54